Disclaimer

Please do not use the information listed here in-flight or in-navigation, as they are not provided to us by the airports but are provided by volunteers, so they might be outdated.

Search


Regions


Airport information page

No radio frequency information is available.

Airport informations:
Latitude: 62° 02' 52.12" N
Longitude: 014° 25' 22.62" E
Elevation: 1178 feet - 359 meters
Operating hours: 24 hour operations
Operating agency: Civil government, landing fees and diplomatic clearance may be required
Timezone: UTC+1(+2DT) - Last Sunday in March to last Sunday in October
Fuel: Jet A, without icing inhibitor.

100/130 MIL Spec, low lead, aviation gasoline (BLUE)

Runway information:
09/27 - 5579 x 98 feet< - >1700 x 30 meters

Recent METARs:
ESND 151750Z AUTO 00000KT 0900 R09/P2000N BR BKN002/// OVC027/// M26/M29 Q1031
ESND 151820Z AUTO 00000KT 9999 OVC002/// M24/M27 Q1031
ESND 151850Z AUTO 00000KT 9999 OVC002/// M24/M26 Q1031

Airport on the map: